Time;durP1;ratioP1;P1;durP2;ratioP2;P2;SDS_P1;SDS_P2;PMS_P1;PMS_P2;Temp;Humidity;BMP_temperature;BMP_pressure;BME280_temperature;BME280_humidity;BME280_pressure;Samples;Min_cycle;Max_cycle;Signal;HPM_P1;HPM_P2
2022/05/05 00:02:23;;;;;;;;;;;23.40;38.80;;;;;;6185306;28;19926;-54
2022/05/05 00:05:25;;;;;;;;;;;23.00;38.60;;;;;;6189400;28;20035;-53
2022/05/05 00:08:27;;;;;;;;;;;23.30;38.90;;;;;;6191712;28;19933;-53
2022/05/05 00:14:44;;;;;;;;;;;23.30;38.90;;;;;;6193981;28;19931;-53
2022/05/05 00:17:46;;;;;;;;;;;23.30;38.90;;;;;;6193220;28;21151;-54
2022/05/05 00:20:48;;;;;;;;;;;23.20;38.90;;;;;;6197112;28;19928;-55
2022/05/05 00:23:49;;;;;;;;;;;23.00;38.80;;;;;;6196094;28;19921;-52
2022/05/05 00:26:50;;;;;;;;;;;23.10;38.80;;;;;;6190548;28;19921;-53
2022/05/05 00:29:53;;;;;;;;;;;23.40;39.10;;;;;;6176717;28;20047;-52
2022/05/05 00:32:55;;;;;;;;;;;22.90;38.80;;;;;;6192340;28;19921;-53
2022/05/05 00:35:57;;;;;;;;;;;23.30;39.10;;;;;;6197510;28;19929;-54
2022/05/05 00:38:59;;;;;;;;;;;23.10;38.90;;;;;;6195917;28;19932;-53
2022/05/05 00:42:01;;;;;;;;;;;23.00;38.90;;;;;;6192646;28;19937;-52
2022/05/05 00:45:03;;;;;;;;;;;23.00;38.90;;;;;;6193038;28;19968;-55
2022/05/05 00:48:05;;;;;;;;;;;23.10;39.00;;;;;;6190278;28;20155;-54
2022/05/05 00:51:07;;;;;;;;;;;23.20;39.10;;;;;;6175660;28;19936;-52
2022/05/05 00:54:08;;;;;;;;;;;22.80;38.90;;;;;;6190455;28;19929;-52
2022/05/05 00:57:10;;;;;;;;;;;23.10;39.10;;;;;;6196933;28;19940;-52
2022/05/05 01:00:12;;;;;;;;;;;23.20;39.20;;;;;;6195458;28;19972;-55
2022/05/05 01:03:15;;;;;;;;;;;23.10;39.20;;;;;;6196406;28;19929;-54
2022/05/05 01:06:17;;;;;;;;;;;23.00;39.10;;;;;;6176669;28;20000;-54
2022/05/05 01:09:18;;;;;;;;;;;23.10;39.20;;;;;;6190474;28;20991;-49
2022/05/05 01:12:20;;;;;;;;;;;23.00;39.20;;;;;;6194842;28;20906;-52
2022/05/05 01:15:21;;;;;;;;;;;22.80;39.10;;;;;;6191171;28;20058;-55
2022/05/05 01:18:23;;;;;;;;;;;23.10;39.30;;;;;;6191494;28;19957;-53
2022/05/05 01:21:25;;;;;;;;;;;23.10;39.30;;;;;;6188723;28;20004;-53
2022/05/05 01:30:54;;;;;;;;;;;22.80;39.20;;;;;;6190080;28;20757;-53
2022/05/05 01:33:56;;;;;;;;;;;23.10;39.50;;;;;;6194114;28;19929;-52
2022/05/05 01:36:57;;;;;;;;;;;22.80;40.00;;;;;;6196082;28;20208;-52
2022/05/05 01:39:59;;;;;;;;;;;23.00;39.40;;;;;;6191247;28;20007;-51
2022/05/05 01:43:00;;;;;;;;;;;22.80;39.40;;;;;;6187828;28;19929;-51
2022/05/05 01:46:02;;;;;;;;;;;23.10;39.60;;;;;;6196415;28;19929;-53
2022/05/05 01:49:04;;;;;;;;;;;22.70;39.40;;;;;;6196941;28;19929;-55
2022/05/05 01:52:09;;;;;;;;;;;23.20;39.70;;;;;;6192319;28;20002;-49
2022/05/05 01:55:10;;;;;;;;;;;23.00;39.50;;;;;;6194649;28;19940;-52
2022/05/05 01:58:11;;;;;;;;;;;23.10;39.70;;;;;;6195933;28;19925;-52
2022/05/05 02:01:13;;;;;;;;;;;22.80;39.60;;;;;;6187996;28;19961;-49
2022/05/05 02:04:14;;;;;;;;;;;23.00;39.80;;;;;;6192817;28;19925;-54
2022/05/05 02:07:16;;;;;;;;;;;22.80;39.70;;;;;;6194437;28;19929;-52
2022/05/05 02:10:20;;;;;;;;;;;22.90;39.80;;;;;;6189366;28;20039;-50
2022/05/05 02:13:21;;;;;;;;;;;22.80;39.70;;;;;;6187145;28;19921;-51
2022/05/05 02:16:23;;;;;;;;;;;22.90;39.80;;;;;;6192377;28;19937;-52
2022/05/05 02:19:24;;;;;;;;;;;22.70;39.70;;;;;;6191465;28;20036;-52
2022/05/05 02:22:26;;;;;;;;;;;23.10;39.90;;;;;;6198332;28;20464;-53
2022/05/05 02:25:27;;;;;;;;;;;22.80;39.80;;;;;;6192248;28;20029;-53
2022/05/05 02:28:29;;;;;;;;;;;23.10;40.00;;;;;;6191209;28;19932;-55
2022/05/05 02:31:31;;;;;;;;;;;22.90;39.90;;;;;;6194744;28;19921;-55
2022/05/05 02:34:32;;;;;;;;;;;23.10;40.00;;;;;;6197892;28;19979;-50
2022/05/05 02:40:50;;;;;;;;;;;23.10;40.10;;;;;;6192053;28;19948;-54
2022/05/05 02:43:52;;;;;;;;;;;22.80;40.00;;;;;;6194956;28;19924;-54
2022/05/05 02:46:53;;;;;;;;;;;23.00;40.10;;;;;;6186875;28;20003;-55
2022/05/05 02:49:54;;;;;;;;;;;23.00;40.10;;;;;;6190587;28;20043;-51
2022/05/05 02:52:58;;;;;;;;;;;22.90;40.10;;;;;;6193559;28;19929;-55
2022/05/05 02:55:59;;;;;;;;;;;23.10;39.80;;;;;;6191649;28;20525;-54
2022/05/05 02:59:00;;;;;;;;;;;22.90;40.10;;;;;;6192203;28;19930;-50
2022/05/05 03:02:01;;;;;;;;;;;22.70;40.00;;;;;;6186930;28;20801;-53
2022/05/05 03:05:03;;;;;;;;;;;22.90;40.10;;;;;;6191003;28;19921;-55
2022/05/05 03:08:05;;;;;;;;;;;22.90;40.10;;;;;;6190453;28;19975;-53
2022/05/05 03:11:06;;;;;;;;;;;23.00;40.20;;;;;;6193513;28;19963;-54
2022/05/05 03:14:08;;;;;;;;;;;22.70;40.10;;;;;;6190009;28;19976;-52
2022/05/05 03:17:09;;;;;;;;;;;23.00;40.20;;;;;;6186714;28;19979;-52
2022/05/05 03:20:11;;;;;;;;;;;23.10;40.30;;;;;;6191207;28;19975;-51
2022/05/05 03:23:13;;;;;;;;;;;23.00;40.30;;;;;;6191749;28;19936;-54
2022/05/05 03:26:14;;;;;;;;;;;23.30;40.40;;;;;;6189167;28;20031;-53
2022/05/05 03:29:16;;;;;;;;;;;23.10;40.40;;;;;;6191948;28;19994;-52
2022/05/05 03:32:17;;;;;;;;;;;22.80;40.20;;;;;;6192387;28;19929;-54
2022/05/05 03:35:20;;;;;;;;;;;22.90;40.30;;;;;;6186520;28;20043;-52
2022/05/05 03:38:22;;;;;;;;;;;22.80;40.20;;;;;;6192369;28;19921;-56
2022/05/05 03:41:23;;;;;;;;;;;22.90;40.30;;;;;;6192079;28;20764;-54
2022/05/05 03:44:24;;;;;;;;;;;22.70;40.20;;;;;;6184414;28;19933;-52
2022/05/05 03:47:26;;;;;;;;;;;23.00;40.30;;;;;;6186099;28;19932;-52
2022/05/05 03:50:27;;;;;;;;;;;22.50;40.10;;;;;;6189948;28;19932;-52
2022/05/05 03:53:29;;;;;;;;;;;23.00;40.30;;;;;;6194982;28;20032;-55
2022/05/05 03:56:30;;;;;;;;;;;23.00;40.40;;;;;;6200334;28;19925;-51
2022/05/05 03:59:32;;;;;;;;;;;23.10;40.50;;;;;;6196578;28;20709;-54
2022/05/05 04:02:33;;;;;;;;;;;22.70;40.20;;;;;;6191693;28;19921;-52
2022/05/05 04:05:35;;;;;;;;;;;23.00;40.40;;;;;;6189434;28;19954;-54
2022/05/05 04:08:37;;;;;;;;;;;23.00;40.50;;;;;;6193168;28;19933;-52
2022/05/05 04:11:39;;;;;;;;;;;23.00;40.40;;;;;;6192263;28;19929;-50
2022/05/05 04:14:40;;;;;;;;;;;21.40;39.50;;;;;;6197783;28;20762;-52
2022/05/05 04:17:41;;;;;;;;;;;22.80;40.30;;;;;;6191999;28;19998;-54
2022/05/05 04:20:43;;;;;;;;;;;22.70;40.30;;;;;;6192354;28;19937;-54
2022/05/05 04:23:45;;;;;;;;;;;22.90;40.40;;;;;;6195301;28;19980;-54
2022/05/05 04:26:47;;;;;;;;;;;22.90;40.40;;;;;;6191726;28;20035;-55
2022/05/05 04:29:48;;;;;;;;;;;23.00;40.50;;;;;;6177069;28;20005;-52
2022/05/05 04:32:51;;;;;;;;;;;22.80;40.40;;;;;;6191362;28;19921;-49
2022/05/05 04:35:52;;;;;;;;;;;22.70;40.30;;;;;;6190766;28;20004;-54
2022/05/05 04:38:54;;;;;;;;;;;23.10;40.60;;;;;;6189510;28;19933;-55
2022/05/05 04:41:56;;;;;;;;;;;23.20;40.60;;;;;;6188084;28;19929;-54
2022/05/05 04:44:57;;;;;;;;;;;23.00;41.20;;;;;;6188991;28;20704;-53
2022/05/05 04:47:59;;;;;;;;;;;22.90;40.50;;;;;;6193513;28;20921;-54
2022/05/05 04:51:00;;;;;;;;;;;22.90;40.50;;;;;;6188836;28;19971;-52
2022/05/05 04:54:02;;;;;;;;;;;22.90;40.50;;;;;;6186384;28;19929;-55
2022/05/05 04:57:04;;;;;;;;;;;22.70;40.50;;;;;;6194145;28;19921;-53
2022/05/05 05:00:06;;;;;;;;;;;23.10;40.60;;;;;;6188758;28;20636;-53
2022/05/05 05:03:32;;;;;;;;;;;23.00;40.60;;;;;;6188162;28;19929;-55
2022/05/05 05:06:29;;;;;;;;;;;22.90;40.60;;;;;;6175585;28;20774;-52
2022/05/05 05:09:31;;;;;;;;;;;22.80;40.60;;;;;;6191019;28;20071;-50
2022/05/05 05:12:33;;;;;;;;;;;23.00;40.70;;;;;;6191237;28;19932;-54
2022/05/05 05:15:34;;;;;;;;;;;22.80;40.60;;;;;;6190868;28;20620;-54
2022/05/05 05:18:36;;;;;;;;;;;22.80;40.60;;;;;;6189380;28;19925;-53
2022/05/05 05:21:37;;;;;;;;;;;22.60;40.50;;;;;;6189898;28;19924;-52
2022/05/05 05:24:39;;;;;;;;;;;22.90;40.60;;;;;;6187764;28;19929;-51
2022/05/05 05:27:40;;;;;;;;;;;22.70;40.50;;;;;;6183328;28;20786;-54
2022/05/05 05:31:02;;;;;;;;;;;22.90;40.60;;;;;;6170194;28;20841;-54
2022/05/05 05:34:03;;;;;;;;;;;22.70;40.60;;;;;;6186707;28;19928;-53
2022/05/05 05:37:04;;;;;;;;;;;22.90;40.70;;;;;;6191580;28;21132;-55
2022/05/05 05:40:07;;;;;;;;;;;22.70;40.60;;;;;;6184757;28;19929;-52
2022/05/05 05:43:08;;;;;;;;;;;22.90;40.70;;;;;;6178780;28;19975;-52
2022/05/05 05:46:10;;;;;;;;;;;22.90;40.70;;;;;;6179471;28;19946;-55
2022/05/05 05:49:11;;;;;;;;;;;22.90;40.70;;;;;;6180885;28;20010;-52
2022/05/05 05:52:13;;;;;;;;;;;22.20;40.30;;;;;;6184184;28;20008;-51
2022/05/05 05:55:15;;;;;;;;;;;22.90;40.70;;;;;;6181577;28;19925;-54
2022/05/05 05:58:16;;;;;;;;;;;23.00;40.80;;;;;;6178103;28;19925;-53
2022/05/05 06:01:18;;;;;;;;;;;22.60;40.60;;;;;;6177993;28;19933;-50
2022/05/05 06:04:19;;;;;;;;;;;22.90;40.60;;;;;;6169856;28;19970;-55
2022/05/05 06:07:21;;;;;;;;;;;22.90;40.80;;;;;;6164658;28;21048;-53
2022/05/05 06:10:23;;;;;;;;;;;22.50;40.70;;;;;;6154873;28;19936;-55
2022/05/05 06:13:24;;;;;;;;;;;22.80;41.00;;;;;;6160149;28;19933;-52
2022/05/05 06:16:27;;;;;;;;;;;22.80;41.20;;;;;;6160726;28;19936;-53
2022/05/05 06:19:28;;;;;;;;;;;22.30;41.00;;;;;;6151851;28;19933;-54
2022/05/05 06:22:30;;;;;;;;;;;22.70;41.30;;;;;;6151022;28;20033;-53
2022/05/05 06:25:32;;;;;;;;;;;22.50;41.30;;;;;;6144008;28;19964;-51
2022/05/05 06:28:33;;;;;;;;;;;22.70;41.50;;;;;;6141665;28;20782;-56
2022/05/05 06:31:35;;;;;;;;;;;22.80;41.70;;;;;;6132944;28;19972;-54
2022/05/05 06:34:37;;;;;;;;;;;22.50;41.60;;;;;;6133553;28;19929;-52
2022/05/05 06:37:39;;;;;;;;;;;22.50;41.70;;;;;;6124616;28;19929;-54
2022/05/05 06:40:42;;;;;;;;;;;20.60;40.70;;;;;;6124105;28;19929;-57
2022/05/05 06:43:43;;;;;;;;;;;22.20;41.70;;;;;;6125828;28;20055;-56
2022/05/05 06:46:45;;;;;;;;;;;22.40;41.90;;;;;;6107805;28;19933;-56
2022/05/05 06:49:46;;;;;;;;;;;22.00;41.70;;;;;;6107919;28;20043;-53
2022/05/05 06:52:52;;;;;;;;;;;22.00;41.80;;;;;;6056067;28;19929;-53
2022/05/05 06:55:57;;;;;;;;;;;22.20;41.70;;;;;;6059601;28;19933;-49
2022/05/05 06:58:58;;;;;;;;;;;22.30;42.20;;;;;;6007050;28;19928;-51
2022/05/05 07:02:02;;;;;;;;;;;22.00;41.90;;;;;;6005524;28;20622;-56
2022/05/05 07:08:15;;;;;;;;;;;21.90;42.10;;;;;;6010895;28;19936;-54
2022/05/05 07:11:17;;;;;;;;;;;22.30;42.50;;;;;;5981244;28;19936;-54
2022/05/05 07:14:18;;;;;;;;;;;22.20;42.30;;;;;;5987103;28;19980;-59
2022/05/05 07:17:19;;;;;;;;;;;22.20;42.40;;;;;;5992390;28;19935;-58
2022/05/05 07:20:21;;;;;;;;;;;22.20;42.20;;;;;;6000889;28;20063;-55
2022/05/05 07:23:23;;;;;;;;;;;22.30;42.10;;;;;;5976598;28;19929;-56
2022/05/05 07:26:25;;;;;;;;;;;22.20;42.10;;;;;;5994181;28;20287;-55
2022/05/05 07:29:27;;;;;;;;;;;22.30;41.90;;;;;;5949521;28;19929;-56
2022/05/05 07:32:28;;;;;;;;;;;22.40;41.90;;;;;;5975823;28;25394;-54
2022/05/05 07:35:37;;;;;;;;;;;22.50;41.90;;;;;;5958462;28;19929;-53
2022/05/05 07:38:39;;;;;;;;;;;22.30;41.60;;;;;;5997165;28;21028;-52
2022/05/05 07:41:42;;;;;;;;;;;22.50;41.80;;;;;;6012096;28;19929;-53
2022/05/05 07:44:43;;;;;;;;;;;22.70;41.90;;;;;;5976572;28;20071;-54
2022/05/05 07:47:45;;;;;;;;;;;22.60;41.80;;;;;;5961613;28;23891;-53
2022/05/05 07:50:47;;;;;;;;;;;22.70;41.80;;;;;;5969271;28;19995;-55
2022/05/05 07:56:59;;;;;;;;;;;22.60;41.80;;;;;;5970528;28;19936;-56
2022/05/05 08:00:01;;;;;;;;;;;22.70;41.70;;;;;;5956526;28;19941;-51
2022/05/05 08:03:02;;;;;;;;;;;22.70;41.90;;;;;;5912460;28;19929;-57
2022/05/05 08:06:04;;;;;;;;;;;22.70;41.80;;;;;;5908281;28;20736;-57
2022/05/05 08:09:06;;;;;;;;;;;23.00;42.00;;;;;;5893363;28;19929;-57
2022/05/05 08:12:09;;;;;;;;;;;22.80;41.90;;;;;;5912256;28;22860;-59
2022/05/05 08:15:10;;;;;;;;;;;22.70;41.80;;;;;;5978150;28;19935;-59
2022/05/05 08:18:11;;;;;;;;;;;22.90;42.00;;;;;;5930979;28;19929;-58
2022/05/05 08:21:13;;;;;;;;;;;22.70;41.80;;;;;;5957645;28;19983;-57
2022/05/05 08:30:46;;;;;;;;;;;23.00;41.90;;;;;;5976366;28;19973;-61
2022/05/05 08:33:53;;;;;;;;;;;23.10;41.90;;;;;;5936420;28;21290;-59
2022/05/05 08:36:54;;;;;;;;;;;23.20;41.90;;;;;;5947914;28;19933;-59
2022/05/05 08:39:56;;;;;;;;;;;23.60;42.10;;;;;;5928796;28;21343;-58
2022/05/05 08:43:04;;;;;;;;;;;23.10;41.90;;;;;;5979863;28;19929;-57
2022/05/05 08:46:11;;;;;;;;;;;23.10;42.50;;;;;;5970696;28;19929;-57
2022/05/05 08:49:13;;;;;;;;;;;23.20;42.00;;;;;;5985943;28;20208;-58
2022/05/05 08:52:17;;;;;;;;;;;24.90;42.90;;;;;;5936733;28;20036;-57
2022/05/05 08:55:20;;;;;;;;;;;23.00;41.90;;;;;;5978830;28;20109;-57
2022/05/05 08:58:47;;;;;;;;;;;22.90;41.90;;;;;;5933854;28;21861;-58
2022/05/05 09:01:51;;;;;;;;;;;23.10;42.00;;;;;;5933271;28;19935;-57
2022/05/05 09:04:58;;;;;;;;;;;23.10;42.10;;;;;;5933661;28;19929;-57
2022/05/05 09:08:00;;;;;;;;;;;23.20;42.20;;;;;;5911431;28;20044;-53
2022/05/05 09:11:03;;;;;;;;;;;23.10;42.10;;;;;;5956877;28;19936;-58
2022/05/05 09:14:07;;;;;;;;;;;23.10;42.10;;;;;;5915965;28;19936;-58
2022/05/05 09:17:11;;;;;;;;;;;22.90;42.70;;;;;;5943114;28;21339;-59
2022/05/05 09:20:13;;;;;;;;;;;23.10;42.00;;;;;;5927284;28;19983;-57
2022/05/05 09:23:26;;;;;;;;;;;23.10;42.00;;;;;;6000458;28;19972;-55
2022/05/05 09:26:29;;;;;;;;;;;23.20;42.10;;;;;;5984741;28;21054;-57
2022/05/05 09:29:31;;;;;;;;;;;23.20;42.00;;;;;;5986258;28;20014;-57
2022/05/05 09:32:37;;;;;;;;;;;23.20;42.00;;;;;;5983233;28;21190;-55
2022/05/05 09:35:41;;;;;;;;;;;23.40;42.10;;;;;;5980265;28;19935;-56
2022/05/05 09:38:50;;;;;;;;;;;23.30;41.90;;;;;;5993589;28;19929;-56
2022/05/05 09:42:01;;;;;;;;;;;23.20;42.00;;;;;;5984258;28;19955;-57
2022/05/05 09:45:13;;;;;;;;;;;23.20;42.20;;;;;;5928944;28;19929;-56
2022/05/05 09:48:15;;;;;;;;;;;23.40;42.10;;;;;;5936242;28;19929;-58
2022/05/05 09:51:17;;;;;;;;;;;23.30;41.90;;;;;;5962780;28;19929;-56
2022/05/05 09:57:42;;;;;;;;;;;23.30;41.80;;;;;;6018339;28;19972;-58
2022/05/05 10:00:45;;;;;;;;;;;23.30;41.80;;;;;;5979105;28;19930;-53
2022/05/05 10:07:06;;;;;;;;;;;23.50;41.90;;;;;;5959109;28;20015;-49
2022/05/05 10:10:08;;;;;;;;;;;23.50;41.90;;;;;;5979957;28;19929;-48
2022/05/05 10:13:10;;;;;;;;;;;23.40;41.90;;;;;;6013822;28;19988;-50
2022/05/05 10:16:14;;;;;;;;;;;23.40;41.80;;;;;;5944596;28;20071;-53
2022/05/05 10:19:16;;;;;;;;;;;23.60;41.90;;;;;;6001340;28;19936;-48
2022/05/05 10:22:19;;;;;;;;;;;23.60;41.80;;;;;;6041921;28;20050;-53
2022/05/05 10:25:22;;;;;;;;;;;23.60;41.80;;;;;;6043193;28;19979;-47
2022/05/05 10:28:39;;;;;;;;;;;23.60;41.70;;;;;;6021966;28;21165;-51
2022/05/05 10:31:41;;;;;;;;;;;23.70;41.70;;;;;;6025690;28;19929;-52
2022/05/05 10:34:45;;;;;;;;;;;23.60;41.60;;;;;;6028657;28;19929;-49
2022/05/05 10:37:47;;;;;;;;;;;23.40;41.50;;;;;;6044977;28;19929;-53
2022/05/05 10:40:48;;;;;;;;;;;23.70;41.70;;;;;;6063677;28;21492;-54
2022/05/05 10:44:05;;;;;;;;;;;23.60;41.60;;;;;;6072185;28;19935;-55
2022/05/05 10:47:07;;;;;;;;;;;23.40;41.50;;;;;;6056603;28;20047;-57
2022/05/05 10:50:26;;;;;;;;;;;23.60;41.80;;;;;;6071637;28;19930;-50
2022/05/05 10:53:29;;;;;;;;;;;23.40;41.60;;;;;;6081774;28;19933;-52
2022/05/05 10:56:31;;;;;;;;;;;23.50;41.70;;;;;;6079613;28;19964;-51
2022/05/05 11:00:04;;;;;;;;;;;23.40;41.70;;;;;;6081956;28;20047;-47
2022/05/05 11:03:14;;;;;;;;;;;23.20;41.60;;;;;;6074052;28;19964;-50
2022/05/05 11:06:17;;;;;;;;;;;24.10;42.10;;;;;;6090213;28;20338;-53
2022/05/05 11:09:28;;;;;;;;;;;23.10;41.50;;;;;;6097508;28;20007;-53
2022/05/05 11:12:32;;;;;;;;;;;23.20;41.60;;;;;;6077857;28;19936;-50
2022/05/05 11:22:06;;;;;;;;;;;23.30;41.60;;;;;;6069666;28;19929;-47
2022/05/05 11:25:08;;;;;;;;;;;23.30;41.70;;;;;;6082794;28;19937;-48
2022/05/05 11:28:11;;;;;;;;;;;23.40;41.50;;;;;;6065216;28;19932;-48
2022/05/05 11:31:16;;;;;;;;;;;23.30;41.60;;;;;;6084764;28;19937;-48
2022/05/05 11:34:21;;;;;;;;;;;23.50;41.50;;;;;;6085659;28;22858;-52
2022/05/05 11:37:25;;;;;;;;;;;23.50;41.30;;;;;;6084241;28;19960;-47
2022/05/05 11:40:34;;;;;;;;;;;23.50;41.40;;;;;;6065484;28;19964;-50
2022/05/05 11:46:53;;;;;;;;;;;23.30;41.20;;;;;;6035830;28;19935;-54
2022/05/05 11:49:56;;;;;;;;;;;23.60;41.30;;;;;;6043139;28;19929;-47
2022/05/05 11:52:59;;;;;;;;;;;23.60;41.20;;;;;;6029358;28;19929;-53
2022/05/05 11:56:00;;;;;;;;;;;23.60;41.30;;;;;;6019873;28;19933;-49
2022/05/05 12:02:30;;;;;;;;;;;23.60;41.20;;;;;;5964656;28;19929;-50
2022/05/05 12:05:32;;;;;;;;;;;23.70;41.30;;;;;;5980141;28;19936;-50
2022/05/05 12:08:34;;;;;;;;;;;23.70;41.80;;;;;;5990757;28;21026;-49
2022/05/05 12:11:36;;;;;;;;;;;23.70;41.00;;;;;;5991451;28;19933;-52
2022/05/05 12:14:40;;;;;;;;;;;23.80;41.20;;;;;;5934983;28;20060;-49
2022/05/05 12:17:46;;;;;;;;;;;23.80;41.10;;;;;;5951286;28;19932;-50
2022/05/05 12:20:49;;;;;;;;;;;23.70;41.20;;;;;;5948356;28;20091;-50
2022/05/05 12:23:58;;;;;;;;;;;23.80;41.30;;;;;;5979514;28;20071;-48
2022/05/05 12:27:07;;;;;;;;;;;23.50;41.00;;;;;;5946211;28;19933;-46
2022/05/05 12:30:28;;;;;;;;;;;23.50;41.10;;;;;;5927862;28;19929;-50
2022/05/05 12:33:35;;;;;;;;;;;23.70;41.30;;;;;;5963580;28;20010;-50
2022/05/05 12:36:37;;;;;;;;;;;23.60;41.30;;;;;;5963957;28;19929;-52
2022/05/05 12:39:53;;;;;;;;;;;23.60;41.10;;;;;;5972341;28;19975;-51
2022/05/05 12:43:00;;;;;;;;;;;23.60;41.10;;;;;;5980363;28;19928;-48
2022/05/05 12:46:02;;;;;;;;;;;23.60;41.00;;;;;;6000925;28;19928;-51
2022/05/05 12:49:04;;;;;;;;;;;23.60;41.10;;;;;;5982444;28;19929;-53
2022/05/05 12:59:36;;;;;;;;;;;23.60;41.20;;;;;;5948286;28;20051;-49
2022/05/05 13:02:01;;;;;;;;;;;23.70;41.00;;;;;;5948736;28;19978;-51
2022/05/05 13:05:04;;;;;;;;;;;23.60;41.00;;;;;;5940184;28;19935;-51
2022/05/05 13:08:05;;;;;;;;;;;23.70;41.10;;;;;;5951987;28;19936;-51
2022/05/05 13:11:07;;;;;;;;;;;23.60;41.10;;;;;;5972076;28;20605;-51
2022/05/05 13:14:09;;;;;;;;;;;23.60;41.00;;;;;;5960846;28;21736;-49
2022/05/05 13:17:11;;;;;;;;;;;23.70;41.00;;;;;;5953453;28;22850;-48
2022/05/05 13:20:13;;;;;;;;;;;23.60;41.00;;;;;;5950886;28;19929;-52
2022/05/05 13:23:14;;;;;;;;;;;23.60;41.50;;;;;;5932711;28;20090;-53
2022/05/05 13:26:16;;;;;;;;;;;23.60;41.00;;;;;;5940874;28;20067;-51
2022/05/05 13:29:18;;;;;;;;;;;23.60;41.10;;;;;;5953476;28;20068;-53
2022/05/05 13:32:20;;;;;;;;;;;23.40;40.90;;;;;;5932476;28;20078;-49
2022/05/05 13:35:21;;;;;;;;;;;23.50;41.10;;;;;;5944959;28;20361;-53
2022/05/05 13:38:23;;;;;;;;;;;23.50;41.00;;;;;;5961091;28;22520;-50
2022/05/05 13:41:24;;;;;;;;;;;23.70;41.20;;;;;;5963421;28;19936;-52
2022/05/05 13:44:26;;;;;;;;;;;23.50;41.20;;;;;;5970845;28;22388;-54
2022/05/05 13:47:28;;;;;;;;;;;23.50;41.20;;;;;;5970685;28;19936;-52
2022/05/05 13:50:30;;;;;;;;;;;23.50;41.20;;;;;;5979731;28;20075;-53
2022/05/05 13:53:32;;;;;;;;;;;23.40;41.30;;;;;;5953520;28;21420;-52
2022/05/05 13:56:34;;;;;;;;;;;23.40;41.20;;;;;;5966590;28;19929;-48
2022/05/05 13:59:36;;;;;;;;;;;23.60;41.30;;;;;;5984494;28;20058;-50
2022/05/05 14:02:58;;;;;;;;;;;23.40;41.20;;;;;;5931881;28;19964;-50
2022/05/05 14:06:00;;;;;;;;;;;23.50;41.30;;;;;;5951937;28;19976;-48
2022/05/05 14:12:15;;;;;;;;;;;23.40;41.30;;;;;;5966079;28;20654;-53
2022/05/05 14:15:18;;;;;;;;;;;23.40;41.00;;;;;;5956422;28;19928;-49
2022/05/05 14:18:23;;;;;;;;;;;23.60;41.10;;;;;;5935086;28;20145;-47
2022/05/05 14:21:24;;;;;;;;;;;23.60;41.10;;;;;;5963998;28;19928;-51
2022/05/05 14:24:26;;;;;;;;;;;23.60;41.00;;;;;;5975831;28;21919;-51
2022/05/05 14:27:54;;;;;;;;;;;23.70;41.00;;;;;;5951672;28;22036;-52
2022/05/05 14:30:56;;;;;;;;;;;23.50;40.80;;;;;;5965409;28;20009;-52
2022/05/05 14:33:57;;;;;;;;;;;23.80;41.00;;;;;;5950447;28;22120;-50
2022/05/05 14:36:59;;;;;;;;;;;23.70;40.90;;;;;;5974268;28;19936;-50
2022/05/05 14:40:01;;;;;;;;;;;23.80;41.00;;;;;;5952836;28;20023;-51
2022/05/05 14:43:04;;;;;;;;;;;23.80;40.90;;;;;;5967910;28;19937;-51
2022/05/05 14:46:07;;;;;;;;;;;23.80;40.90;;;;;;5938414;28;19936;-50
2022/05/05 14:49:09;;;;;;;;;;;23.70;40.80;;;;;;5961539;28;19929;-50
2022/05/05 14:52:11;;;;;;;;;;;23.80;40.90;;;;;;5955143;28;19982;-48
2022/05/05 14:55:13;;;;;;;;;;;23.80;40.90;;;;;;5977635;28;19986;-50
2022/05/05 14:58:14;;;;;;;;;;;23.90;40.90;;;;;;5969963;28;22238;-53
2022/05/05 15:01:18;;;;;;;;;;;23.80;40.90;;;;;;5904521;28;20597;-52
2022/05/05 15:04:19;;;;;;;;;;;24.20;41.70;;;;;;5904532;28;19936;-52
2022/05/05 15:07:21;;;;;;;;;;;23.90;40.50;;;;;;5910318;28;19987;-52
2022/05/05 15:10:22;;;;;;;;;;;24.00;40.90;;;;;;5950315;28;19935;-50
2022/05/05 15:13:24;;;;;;;;;;;23.90;40.90;;;;;;5925360;28;19996;-52
2022/05/05 15:16:30;;;;;;;;;;;24.00;41.00;;;;;;5940092;28;20112;-52
2022/05/05 15:19:33;;;;;;;;;;;23.90;41.40;;;;;;5950243;28;21766;-53
2022/05/05 15:22:39;;;;;;;;;;;24.00;40.90;;;;;;5928409;28;19933;-53
2022/05/05 15:25:40;;;;;;;;;;;24.60;41.20;;;;;;5923457;28;19935;-52
2022/05/05 15:28:42;;;;;;;;;;;24.00;40.90;;;;;;5961257;28;19929;-53
2022/05/05 15:31:44;;;;;;;;;;;24.10;40.90;;;;;;5969935;28;21034;-55
2022/05/05 15:34:46;;;;;;;;;;;23.60;40.60;;;;;;5987122;28;22597;-53
2022/05/05 15:37:47;;;;;;;;;;;24.00;40.80;;;;;;5965408;28;19988;-51
2022/05/05 15:40:49;;;;;;;;;;;24.20;40.90;;;;;;5959781;28;19933;-51
2022/05/05 15:43:51;;;;;;;;;;;24.10;40.80;;;;;;5997266;28;20650;-54
2022/05/05 15:46:53;;;;;;;;;;;24.10;40.80;;;;;;5984732;28;20020;-52
2022/05/05 15:49:54;;;;;;;;;;;24.10;40.80;;;;;;6007852;28;20683;-50
2022/05/05 15:52:56;;;;;;;;;;;24.20;40.80;;;;;;6019843;28;20236;-54
2022/05/05 15:55:58;;;;;;;;;;;23.90;40.70;;;;;;6043537;28;20043;-50
2022/05/05 15:59:00;;;;;;;;;;;24.10;40.70;;;;;;6023499;28;20873;-52
2022/05/05 16:02:03;;;;;;;;;;;24.20;40.80;;;;;;6010870;28;19933;-54
2022/05/05 16:05:05;;;;;;;;;;;23.60;40.40;;;;;;6025758;28;20064;-52
2022/05/05 16:08:07;;;;;;;;;;;24.20;40.90;;;;;;6036965;28;20068;-52
2022/05/05 16:11:08;;;;;;;;;;;24.20;40.80;;;;;;6036299;28;19991;-50
2022/05/05 16:14:10;;;;;;;;;;;24.20;40.70;;;;;;6031860;28;20070;-51
2022/05/05 16:17:12;;;;;;;;;;;24.20;40.70;;;;;;6076342;28;20128;-54
2022/05/05 16:20:14;;;;;;;;;;;24.10;40.60;;;;;;6076734;28;19952;-51
2022/05/05 16:23:16;;;;;;;;;;;24.20;40.70;;;;;;6078226;28;20162;-55
2022/05/05 16:32:46;;;;;;;;;;;24.30;40.60;;;;;;6090944;28;20051;-50
2022/05/05 16:35:48;;;;;;;;;;;24.30;40.60;;;;;;6099908;28;21425;-56
2022/05/05 16:38:49;;;;;;;;;;;24.60;40.70;;;;;;6111992;28;20061;-52
2022/05/05 16:41:51;;;;;;;;;;;24.30;40.60;;;;;;6111002;28;19929;-55
2022/05/05 16:44:53;;;;;;;;;;;24.30;40.60;;;;;;6089751;28;20064;-52
2022/05/05 16:47:56;;;;;;;;;;;24.20;40.50;;;;;;6125997;28;19928;-52
2022/05/05 16:50:59;;;;;;;;;;;24.30;40.60;;;;;;6123052;28;21353;-53
2022/05/05 16:54:00;;;;;;;;;;;24.30;40.50;;;;;;6139693;28;21127;-52
2022/05/05 16:57:03;;;;;;;;;;;24.40;40.60;;;;;;6129497;28;19995;-53
2022/05/05 17:00:05;;;;;;;;;;;24.30;40.50;;;;;;6136758;28;19968;-50
2022/05/05 17:03:07;;;;;;;;;;;24.20;40.50;;;;;;6148681;28;20954;-54
2022/05/05 17:06:08;;;;;;;;;;;24.10;40.40;;;;;;6142710;28;19933;-55
2022/05/05 17:09:10;;;;;;;;;;;24.30;41.10;;;;;;6147185;28;20051;-50
2022/05/05 17:12:13;;;;;;;;;;;24.40;40.50;;;;;;6154715;28;19968;-52
2022/05/05 17:15:15;;;;;;;;;;;24.40;40.50;;;;;;6147038;28;20044;-55
2022/05/05 17:18:21;;;;;;;;;;;24.40;40.50;;;;;;6138067;28;20142;-51
2022/05/05 17:21:22;;;;;;;;;;;24.40;40.50;;;;;;6152044;28;19929;-56
2022/05/05 17:24:24;;;;;;;;;;;24.50;40.50;;;;;;6154587;28;20753;-57
2022/05/05 17:27:25;;;;;;;;;;;24.50;40.50;;;;;;6153281;28;20051;-55
2022/05/05 17:30:28;;;;;;;;;;;24.30;40.40;;;;;;6155394;28;19949;-55
2022/05/05 17:33:29;;;;;;;;;;;24.30;40.50;;;;;;6152846;28;19972;-54
2022/05/05 17:36:31;;;;;;;;;;;24.30;40.50;;;;;;6164600;28;19929;-55
2022/05/05 17:39:33;;;;;;;;;;;24.30;40.40;;;;;;6157437;28;19929;-55
2022/05/05 17:42:40;;;;;;;;;;;24.30;40.50;;;;;;6152825;28;19929;-53
2022/05/05 17:52:12;;;;;;;;;;;24.30;40.50;;;;;;6152023;28;19936;-56
2022/05/05 17:55:14;;;;;;;;;;;24.30;40.50;;;;;;6164400;28;19929;-56
2022/05/05 17:58:16;;;;;;;;;;;24.30;40.60;;;;;;6157231;28;19925;-55
2022/05/05 18:01:17;;;;;;;;;;;24.30;40.50;;;;;;6169834;28;19936;-53
2022/05/05 18:04:19;;;;;;;;;;;24.30;40.60;;;;;;6170631;28;19933;-53
2022/05/05 18:07:38;;;;;;;;;;;24.20;40.50;;;;;;6162989;28;19937;-57
2022/05/05 18:10:40;;;;;;;;;;;24.30;40.50;;;;;;6164083;28;19940;-56
2022/05/05 18:13:41;;;;;;;;;;;24.30;40.60;;;;;;6164625;28;20789;-54
2022/05/05 18:16:43;;;;;;;;;;;24.20;40.50;;;;;;6170780;28;20066;-55
2022/05/05 18:19:45;;;;;;;;;;;24.20;40.50;;;;;;6171617;28;19929;-55
2022/05/05 18:22:47;;;;;;;;;;;24.30;40.60;;;;;;6160407;28;19992;-54
2022/05/05 18:25:49;;;;;;;;;;;24.30;40.60;;;;;;6151603;28;19971;-56
2022/05/05 18:28:53;;;;;;;;;;;24.20;40.60;;;;;;6168508;28;20004;-59
2022/05/05 18:31:57;;;;;;;;;;;24.20;40.70;;;;;;6169699;28;20928;-55
2022/05/05 18:34:59;;;;;;;;;;;24.50;40.80;;;;;;6169962;28;20032;-52
2022/05/05 18:38:00;;;;;;;;;;;24.20;40.70;;;;;;6168208;28;20067;-56
2022/05/05 18:41:02;;;;;;;;;;;24.30;40.80;;;;;;6167893;28;20883;-53
2022/05/05 18:44:03;;;;;;;;;;;24.00;40.60;;;;;;6166671;28;19924;-55
2022/05/05 18:47:05;;;;;;;;;;;24.10;40.70;;;;;;6166591;28;19929;-57
2022/05/05 18:50:07;;;;;;;;;;;24.20;40.80;;;;;;6167901;28;20917;-55
2022/05/05 18:53:09;;;;;;;;;;;24.20;40.80;;;;;;6169249;28;20048;-56